createdAt,value
2018-08-23T00:00:53.022Z,75.96
2018-08-23T00:01:54.399Z,76.16
2018-08-23T00:02:54.837Z,75.56
2018-08-23T00:03:55.176Z,75.72
2018-08-23T00:04:55.492Z,75.93
2018-08-23T00:05:56.690Z,75.74
2018-08-23T00:06:55.925Z,75.98
2018-08-23T00:07:56.295Z,76.02
2018-08-23T00:08:56.609Z,76.36
2018-08-23T00:09:56.895Z,76.55
2018-08-23T00:10:57.281Z,75.92
2018-08-23T00:11:57.578Z,76.07
2018-08-23T00:12:57.938Z,76.35
2018-08-23T00:13:58.269Z,76.54
2018-08-23T00:14:57.591Z,76.53
2018-08-23T00:15:58.927Z,76.58
2018-08-23T00:16:59.591Z,76.85
2018-08-23T00:17:59.891Z,77.06
2018-08-23T00:19:00.235Z,76.64
2018-08-23T00:20:00.530Z,76.95
2018-08-23T00:21:00.793Z,76.93
2018-08-23T00:22:01.030Z,77.04
2018-08-23T00:23:01.320Z,77.05
2018-08-23T00:24:01.800Z,77.02
2018-08-23T00:25:02.080Z,77.07
2018-08-23T00:26:02.556Z,77.04
2018-08-23T00:27:02.927Z,77.16
2018-08-23T00:28:02.105Z,77.03
2018-08-23T00:29:03.352Z,77.04
2018-08-23T00:30:03.602Z,77.29
2018-08-23T00:31:03.798Z,77.20
2018-08-23T00:32:04.163Z,77.48
2018-08-23T00:33:04.391Z,77.14
2018-08-23T00:34:04.599Z,77.12
2018-08-23T00:35:04.971Z,77.35
2018-08-23T00:36:05.222Z,77.39
2018-08-23T00:37:05.447Z,77.26
2018-08-23T00:38:05.734Z,77.23
2018-08-23T00:39:06.175Z,77.10
2018-08-23T00:40:06.431Z,76.97
2018-08-23T00:41:06.820Z,77.17
2018-08-23T00:42:07.038Z,77.43
2018-08-23T00:42:15.183Z,77.58
2018-08-23T00:43:16.799Z,77.59
2018-08-23T00:44:17.072Z,78.05
2018-08-23T00:45:17.707Z,78.02
2018-08-23T00:46:18.101Z,78.28
2018-08-23T00:47:18.339Z,78.12
2018-08-23T00:48:18.585Z,77.86
2018-08-23T00:49:18.916Z,77.71
2018-08-23T00:50:19.119Z,77.54
2018-08-23T00:51:19.477Z,77.65
2018-08-23T00:52:19.737Z,77.71
2018-08-23T00:53:20.313Z,77.60
2018-08-23T00:54:20.662Z,77.95
2018-08-23T00:55:19.817Z,77.84
2018-08-23T00:56:20.019Z,77.96
2018-08-23T00:57:21.296Z,77.80
2018-08-23T00:58:22.277Z,77.80
2018-08-23T00:59:22.434Z,77.98
2018-08-23T01:00:22.740Z,77.95
2018-08-23T01:01:22.965Z,77.94
2018-08-23T01:02:23.230Z,77.89
2018-08-23T01:03:23.660Z,78.12
2018-08-23T01:04:22.953Z,78.25
2018-08-23T01:05:23.101Z,77.92
2018-08-23T01:06:24.382Z,78.18
2018-08-23T01:07:24.602Z,78.03
2018-08-23T01:08:25.070Z,77.83
2018-08-23T01:09:25.426Z,78.25
2018-08-23T01:10:25.954Z,77.78
2018-08-23T01:11:26.205Z,78.46
2018-08-23T01:12:26.583Z,78.37
2018-08-23T01:13:26.925Z,78.21
2018-08-23T01:14:27.098Z,78.26
2018-08-23T01:15:27.274Z,78.45
2018-08-23T01:16:27.504Z,78.67
2018-08-23T01:17:27.733Z,78.37
2018-08-23T01:18:27.986Z,78.53
2018-08-23T01:19:28.194Z,78.50
2018-08-23T01:20:28.332Z,78.76
2018-08-23T01:21:28.550Z,78.73
2018-08-23T01:22:28.818Z,78.87
2018-08-23T01:23:29.080Z,78.96
2018-08-23T01:24:29.345Z,79.00
2018-08-23T01:25:29.530Z,78.67
2018-08-23T01:26:30.270Z,79.08
2018-08-23T01:27:30.935Z,79.15
2018-08-23T01:28:32.786Z,79.02
2018-08-23T01:29:32.101Z,79.39
2018-08-23T01:29:40.185Z,79.56
2018-08-23T01:30:41.313Z,79.54
2018-08-23T01:31:41.654Z,79.68
2018-08-23T01:32:41.903Z,79.49
2018-08-23T01:33:42.218Z,79.34
2018-08-23T01:34:42.429Z,79.48
2018-08-23T01:35:42.784Z,80.04
2018-08-23T01:36:43.559Z,80.27
2018-08-23T01:37:43.843Z,80.28
2018-08-23T01:38:44.257Z,79.89
2018-08-23T01:39:44.982Z,80.27
2018-08-23T01:40:45.201Z,80.35
2018-08-23T01:41:46.051Z,80.44
2018-08-23T01:42:46.247Z,80.62
2018-08-23T01:43:46.560Z,80.74
2018-08-23T01:44:45.799Z,80.73
2018-08-23T01:45:47.426Z,81.42
2018-08-23T01:46:48.022Z,81.76
2018-08-23T01:47:48.279Z,81.85
2018-08-23T01:48:48.660Z,81.86
2018-08-23T01:49:48.884Z,81.79
2018-08-23T01:50:49.721Z,81.99
2018-08-23T01:51:49.934Z,82.29
2018-08-23T01:52:50.141Z,82.53
2018-08-23T01:53:50.343Z,82.29
2018-08-23T01:54:50.720Z,82.15
2018-08-23T01:55:51.402Z,82.11
2018-08-23T01:56:51.662Z,81.78
2018-08-23T01:57:51.891Z,81.72
2018-08-23T01:58:52.087Z,81.96
2018-08-23T01:59:52.299Z,81.97
2018-08-23T02:00:52.530Z,81.86
2018-08-23T02:01:52.734Z,81.89
2018-08-23T02:02:53.046Z,82.01
2018-08-23T02:03:53.228Z,82.56
2018-08-23T02:04:53.490Z,82.39
2018-08-23T02:05:53.702Z,82.21
2018-08-23T02:06:54.120Z,82.45
2018-08-23T02:07:54.310Z,82.59
2018-08-23T02:08:54.546Z,82.58
2018-08-23T02:09:54.821Z,82.60
2018-08-23T02:10:55.096Z,82.60
2018-08-23T02:11:55.288Z,82.72
2018-08-23T02:12:04.579Z,82.71
2018-08-23T02:13:06.066Z,82.75
2018-08-23T02:14:06.338Z,82.92
2018-08-23T02:15:06.530Z,82.99
2018-08-23T02:16:07.154Z,82.86
2018-08-23T02:17:07.342Z,82.83
2018-08-23T02:18:07.483Z,83.07
2018-08-23T02:19:07.698Z,83.08
2018-08-23T02:20:08.020Z,82.61
2018-08-23T02:21:08.345Z,82.78
2018-08-23T02:22:08.737Z,82.46
2018-08-23T02:23:09.158Z,82.96
2018-08-23T02:24:09.372Z,83.22
2018-08-23T02:25:10.654Z,83.12
2018-08-23T02:26:10.006Z,83.24
2018-08-23T02:27:10.769Z,83.39
2018-08-23T02:28:11.003Z,83.40
2018-08-23T02:29:11.281Z,83.71
2018-08-23T02:30:11.671Z,84.06
2018-08-23T02:31:12.003Z,84.14
2018-08-23T02:32:12.282Z,83.88
2018-08-23T02:33:12.539Z,83.88
2018-08-23T02:34:12.958Z,83.84
2018-08-23T02:35:13.221Z,83.88
2018-08-23T02:36:13.497Z,83.91
2018-08-23T02:37:14.364Z,83.87
2018-08-23T02:38:14.609Z,84.01
2018-08-23T02:39:14.443Z,84.34
2018-08-23T02:40:15.902Z,83.92
2018-08-23T02:41:16.342Z,84.51
2018-08-23T02:42:16.573Z,84.79
2018-08-23T02:43:17.086Z,85.09
2018-08-23T02:44:17.345Z,84.31
2018-08-23T02:45:17.815Z,84.38
2018-08-23T02:46:18.630Z,84.27
2018-08-23T02:47:18.826Z,84.45
2018-08-23T02:48:19.170Z,84.66
2018-08-23T02:49:19.814Z,84.78
2018-08-23T02:50:20.073Z,84.87
2018-08-23T02:51:20.521Z,84.91
2018-08-23T02:52:20.982Z,84.57
2018-08-23T02:53:21.226Z,84.56
2018-08-23T02:54:21.568Z,84.96
2018-08-23T02:55:21.767Z,84.91
2018-08-23T02:56:22.085Z,84.91
2018-08-23T02:57:22.601Z,84.66
2018-08-23T02:57:30.596Z,84.92
2018-08-23T02:58:31.763Z,84.94
2018-08-23T02:59:31.988Z,84.80
2018-08-23T03:00:32.371Z,85.13
2018-08-23T03:01:31.695Z,84.92
2018-08-23T03:02:33.441Z,84.83
2018-08-23T03:03:34.354Z,84.91
2018-08-23T03:04:34.617Z,84.62
2018-08-23T03:05:34.978Z,84.90
2018-08-23T03:06:35.323Z,85.27
2018-08-23T03:07:35.788Z,85.11
2018-08-23T03:08:36.083Z,84.94
2018-08-23T03:09:37.475Z,85.13
2018-08-23T03:10:36.785Z,85.06
2018-08-23T03:11:37.070Z,85.08
2018-08-23T03:12:37.340Z,85.19
2018-08-23T03:13:37.934Z,85.44
2018-08-23T03:14:38.243Z,85.40
2018-08-23T03:15:39.069Z,85.23
2018-08-23T03:16:39.273Z,85.37
2018-08-23T03:17:39.541Z,85.60
2018-08-23T03:18:40.218Z,85.50
2018-08-23T03:19:40.464Z,85.78
2018-08-23T03:20:40.708Z,85.84
2018-08-23T03:21:41.116Z,85.58
2018-08-23T03:22:41.727Z,85.42
2018-08-23T03:23:42.082Z,85.51
2018-08-23T03:24:42.368Z,85.84
2018-08-23T03:25:42.611Z,85.96
2018-08-23T03:26:43.010Z,86.20
2018-08-23T03:27:43.398Z,86.41
2018-08-23T03:28:43.792Z,86.16
2018-08-23T03:29:44.204Z,86.03
2018-08-23T03:30:43.398Z,86.24
2018-08-23T03:31:44.613Z,86.08
2018-08-23T03:32:45.020Z,86.24
2018-08-23T03:33:45.640Z,86.44
2018-08-23T03:34:45.875Z,86.19
2018-08-23T03:35:45.331Z,86.28
2018-08-23T03:36:46.593Z,86.28
2018-08-23T03:37:47.047Z,85.81
2018-08-23T03:38:47.370Z,85.90
2018-08-23T03:39:47.632Z,86.13
2018-08-23T03:40:47.857Z,85.88
2018-08-23T03:41:48.150Z,86.04
2018-08-23T03:42:48.513Z,85.92
2018-08-23T03:43:47.710Z,85.89
2018-08-23T03:44:29.319Z,85.96
2018-08-23T03:45:29.498Z,85.94
2018-08-23T03:46:29.926Z,85.87
2018-08-23T03:47:30.103Z,86.06
2018-08-23T03:48:30.126Z,85.92
2018-08-23T03:49:30.489Z,86.02
2018-08-23T03:50:30.779Z,85.95
2018-08-23T03:51:31.042Z,86.16
2018-08-23T03:52:31.160Z,86.06
2018-08-23T03:53:31.075Z,85.89
2018-08-23T03:54:31.374Z,85.84
2018-08-23T03:55:32.591Z,86.02
2018-08-23T03:56:32.872Z,85.90
2018-08-23T03:57:33.115Z,85.93
2018-08-23T03:58:33.464Z,85.82
2018-08-23T03:59:34.158Z,85.74
2018-08-23T04:00:35.072Z,85.90
2018-08-23T04:01:35.387Z,85.93
2018-08-23T04:02:35.698Z,86.43
2018-08-23T04:03:35.887Z,86.31
2018-08-23T04:04:36.171Z,86.51
2018-08-23T04:05:36.410Z,86.58
2018-08-23T04:06:36.971Z,86.30
2018-08-23T04:07:37.796Z,86.59
2018-08-23T04:08:38.082Z,86.72
2018-08-23T04:09:38.772Z,86.59
2018-08-23T04:10:39.466Z,86.35
2018-08-23T04:11:39.794Z,86.66
2018-08-23T04:12:40.796Z,86.75
2018-08-23T04:13:41.029Z,86.50
2018-08-23T04:14:41.103Z,86.65
2018-08-23T04:15:41.299Z,86.72
2018-08-23T04:16:41.698Z,86.77
2018-08-23T04:17:41.953Z,86.59
2018-08-23T04:18:42.197Z,86.71
2018-08-23T04:19:42.463Z,86.52
2018-08-23T04:20:42.878Z,86.34
2018-08-23T04:21:43.189Z,86.24
2018-08-23T04:22:43.589Z,86.34
2018-08-23T04:23:42.774Z,86.05
2018-08-23T04:24:44.613Z,85.96
2018-08-23T04:25:44.853Z,86.65
2018-08-23T04:26:45.088Z,86.63
2018-08-23T04:27:45.632Z,86.53
2018-08-23T04:28:45.848Z,86.40
2018-08-23T04:29:46.281Z,86.33
2018-08-23T04:30:45.838Z,86.41
2018-08-23T04:31:47.097Z,86.64
2018-08-23T04:31:55.812Z,86.76
2018-08-23T04:32:56.164Z,86.70
2018-08-23T04:33:56.351Z,86.52
2018-08-23T04:34:56.635Z,86.90
2018-08-23T04:35:56.892Z,86.63
2018-08-23T04:36:57.233Z,86.49
2018-08-23T04:37:57.418Z,86.57
2018-08-23T04:38:57.884Z,86.65
2018-08-23T04:39:58.366Z,86.47
2018-08-23T04:40:58.638Z,87.11
2018-08-23T04:41:59.130Z,87.37
2018-08-23T04:42:59.423Z,86.88
2018-08-23T04:43:59.699Z,87.03
2018-08-23T04:44:59.782Z,87.30
2018-08-23T04:46:00.220Z,86.86
2018-08-23T04:47:00.633Z,86.91
2018-08-23T04:48:00.964Z,87.33
2018-08-23T04:49:01.359Z,87.28
2018-08-23T04:50:01.759Z,86.92
2018-08-23T04:51:02.107Z,86.87
2018-08-23T04:52:02.530Z,86.97
2018-08-23T04:53:03.221Z,87.01
2018-08-23T04:54:03.457Z,87.15
2018-08-23T04:55:03.788Z,86.97
2018-08-23T04:56:04.116Z,87.08
2018-08-23T04:57:04.342Z,87.49
2018-08-23T04:58:04.556Z,87.21
2018-08-23T04:59:04.829Z,87.47
2018-08-23T05:00:05.248Z,86.99
2018-08-23T05:01:06.081Z,86.82
2018-08-23T05:02:06.413Z,86.58
2018-08-23T05:03:06.865Z,87.32
2018-08-23T05:04:07.103Z,87.00
2018-08-23T05:05:06.565Z,86.82
2018-08-23T05:06:07.918Z,86.95
2018-08-23T05:07:08.196Z,87.13
2018-08-23T05:08:08.567Z,87.23
2018-08-23T05:09:08.994Z,87.15
2018-08-23T05:10:08.184Z,87.13
2018-08-23T05:11:09.495Z,86.92
2018-08-23T05:12:09.880Z,86.80
2018-08-23T05:13:10.176Z,87.24
2018-08-23T05:14:10.592Z,87.03
2018-08-23T05:15:10.143Z,87.25
2018-08-23T05:16:12.016Z,87.01
2018-08-23T05:17:12.256Z,86.57
2018-08-23T05:17:24.282Z,86.71
2018-08-23T05:18:25.446Z,86.79
2018-08-23T05:19:25.679Z,87.11
2018-08-23T05:20:26.048Z,86.55
2018-08-23T05:21:26.562Z,86.78
2018-08-23T05:22:31.855Z,87.13
2018-08-23T05:23:27.191Z,86.75
2018-08-23T05:24:27.686Z,86.59
2018-08-23T05:25:27.964Z,86.83
2018-08-23T05:26:28.234Z,86.57
2018-08-23T05:27:28.469Z,87.01
2018-08-23T05:28:28.798Z,86.67
2018-08-23T05:29:29.117Z,86.60
2018-08-23T05:30:29.529Z,86.54
2018-08-23T05:31:29.829Z,86.61
2018-08-23T05:32:30.182Z,86.36
2018-08-23T05:33:30.468Z,86.53
2018-08-23T05:34:30.772Z,86.31
2018-08-23T05:35:31.019Z,86.30
2018-08-23T05:36:31.265Z,86.08
2018-08-23T05:37:31.593Z,85.76
2018-08-23T05:38:31.895Z,85.12
2018-08-23T05:39:32.109Z,84.89
2018-08-23T05:40:32.346Z,83.94
2018-08-23T05:41:32.639Z,83.41
2018-08-23T05:42:32.901Z,82.76
2018-08-23T05:43:33.804Z,82.40
2018-08-23T05:44:34.040Z,81.67
2018-08-23T05:45:34.360Z,80.98
2018-08-23T05:46:34.857Z,80.44
2018-08-23T05:47:35.174Z,80.16
2018-08-23T05:48:34.412Z,79.81
2018-08-23T05:49:35.662Z,79.64
2018-08-23T05:50:35.995Z,79.06
2018-08-23T05:51:36.175Z,78.11
2018-08-23T05:52:36.445Z,77.74
2018-08-23T05:53:36.740Z,78.25
2018-08-23T05:54:37.046Z,77.68
2018-08-23T05:55:37.290Z,77.21
2018-08-23T05:56:37.571Z,77.10
2018-08-23T05:57:37.869Z,76.76
2018-08-23T05:58:38.058Z,76.68
2018-08-23T05:59:38.206Z,75.26
2018-08-23T06:00:38.460Z,74.94
2018-08-23T06:01:38.762Z,74.78
2018-08-23T06:01:47.457Z,73.99
2018-08-23T06:02:47.908Z,74.00
2018-08-23T06:03:47.197Z,73.57
2018-08-23T06:04:48.568Z,73.57
2018-08-23T06:05:48.933Z,72.77
2018-08-23T06:06:49.265Z,72.42
2018-08-23T06:07:49.579Z,72.55
2018-08-23T06:08:49.996Z,71.11
2018-08-23T06:09:50.283Z,70.73
2018-08-23T06:10:50.517Z,69.64
2018-08-23T06:11:50.604Z,69.51
2018-08-23T06:12:50.742Z,69.14
2018-08-23T06:13:50.931Z,68.91
2018-08-23T06:14:51.498Z,67.85
2018-08-23T06:15:51.749Z,68.31
2018-08-23T06:16:52.158Z,68.74
2018-08-23T06:17:52.448Z,68.09
2018-08-23T06:18:52.922Z,67.27
2018-08-23T06:19:53.429Z,66.79
2018-08-23T06:20:52.733Z,66.37
2018-08-23T06:21:54.008Z,66.08
2018-08-23T06:22:54.277Z,65.37
2018-08-23T06:23:54.576Z,64.70
2018-08-23T06:24:54.829Z,64.54
2018-08-23T06:25:55.514Z,63.89
2018-08-23T06:26:54.821Z,63.57
2018-08-23T06:27:56.394Z,63.19
2018-08-23T06:28:56.800Z,63.14
2018-08-23T06:29:57.519Z,63.74
2018-08-23T06:30:58.079Z,63.23
2018-08-23T06:31:58.347Z,63.39
2018-08-23T06:32:58.750Z,63.70
2018-08-23T06:33:57.893Z,64.22
2018-08-23T06:34:59.127Z,64.08
2018-08-23T06:35:59.357Z,63.63
2018-08-23T06:36:59.834Z,63.29
2018-08-23T06:38:00.289Z,63.68
2018-08-23T06:39:00.522Z,63.57
2018-08-23T06:40:00.855Z,63.86
2018-08-23T06:41:01.056Z,64.44
2018-08-23T06:42:01.389Z,64.10
2018-08-23T06:43:02.302Z,64.30
2018-08-23T06:44:02.539Z,63.73
2018-08-23T06:45:02.794Z,64.34
2018-08-23T06:46:03.170Z,64.85
2018-08-23T06:47:02.381Z,63.94
2018-08-23T06:48:03.836Z,64.53
2018-08-23T06:49:04.225Z,64.16
2018-08-23T06:50:04.501Z,63.98
2018-08-23T06:50:13.202Z,64.67
2018-08-23T06:51:14.494Z,64.72
2018-08-23T06:52:13.747Z,65.14
2018-08-23T06:53:14.985Z,64.18
2018-08-23T06:54:15.227Z,63.94
2018-08-23T06:55:15.605Z,63.54
2018-08-23T06:56:15.900Z,62.93
2018-08-23T06:57:16.208Z,63.57
2018-08-23T06:58:16.444Z,65.22
2018-08-23T06:59:16.802Z,64.67
2018-08-23T07:00:17.101Z,63.44
2018-08-23T07:01:17.430Z,62.50
2018-08-23T07:02:16.576Z,62.70
2018-08-23T07:03:17.776Z,62.13
2018-08-23T07:04:18.190Z,61.75
2018-08-23T07:05:18.734Z,61.35
2018-08-23T07:06:19.254Z,62.36
2018-08-23T07:07:19.610Z,61.84
2018-08-23T07:08:19.795Z,61.49
2018-08-23T07:09:20.176Z,61.93
2018-08-23T07:10:20.517Z,61.55
2018-08-23T07:11:20.875Z,61.67
2018-08-23T07:12:21.470Z,60.86
2018-08-23T07:13:22.053Z,60.40
2018-08-23T07:14:22.448Z,60.69
2018-08-23T07:15:23.003Z,60.07
2018-08-23T07:16:23.401Z,59.18
2018-08-23T07:17:24.050Z,58.40
2018-08-23T07:18:23.267Z,58.20
2018-08-23T07:19:24.710Z,57.66
2018-08-23T07:20:24.884Z,56.63
2018-08-23T07:21:25.192Z,56.18
2018-08-23T07:22:25.413Z,56.23
2018-08-23T07:23:25.819Z,55.66
2018-08-23T07:24:26.071Z,54.87
2018-08-23T07:25:26.410Z,53.70
2018-08-23T07:26:26.896Z,53.71
2018-08-23T07:27:26.079Z,52.71
2018-08-23T07:28:27.363Z,52.28
2018-08-23T07:29:27.601Z,51.38
2018-08-23T07:30:28.369Z,51.23
2018-08-23T07:31:28.794Z,51.09
2018-08-23T07:32:27.925Z,50.96
2018-08-23T07:33:29.691Z,50.87
2018-08-23T07:34:29.939Z,51.06
2018-08-23T07:35:30.276Z,50.52
2018-08-23T07:35:39.130Z,50.46
2018-08-23T07:36:40.254Z,50.43
2018-08-23T07:37:40.641Z,49.98
2018-08-23T07:38:41.082Z,50.27
2018-08-23T07:39:41.451Z,50.09
2018-08-23T07:40:41.843Z,50.28
2018-08-23T07:41:42.365Z,51.07
2018-08-23T07:42:42.615Z,51.05
2018-08-23T07:43:42.927Z,50.84
2018-08-23T07:44:43.075Z,51.18
2018-08-23T07:45:43.332Z,51.16
2018-08-23T07:46:43.724Z,51.09
2018-08-23T07:47:43.903Z,51.46
2018-08-23T07:48:44.211Z,51.49
2018-08-23T07:49:43.467Z,52.19
2018-08-23T07:50:43.719Z,52.48
2018-08-23T07:51:45.074Z,52.42
2018-08-23T07:52:45.599Z,51.95
2018-08-23T07:53:44.731Z,52.17
2018-08-23T07:54:45.925Z,51.93
2018-08-23T07:55:45.146Z,52.15
2018-08-23T07:56:46.497Z,51.58
2018-08-23T07:57:46.781Z,51.39
2018-08-23T07:58:47.080Z,50.68
2018-08-23T07:59:47.566Z,50.91
2018-08-23T08:00:48.258Z,50.87
2018-08-23T08:01:48.641Z,51.72
2018-08-23T08:02:49.008Z,51.54
2018-08-23T08:03:49.278Z,51.28
2018-08-23T08:04:49.483Z,51.72
2018-08-23T08:05:49.736Z,51.48
2018-08-23T08:06:49.962Z,51.01
2018-08-23T08:07:50.288Z,52.14
2018-08-23T08:08:50.568Z,51.95
2018-08-23T08:09:50.918Z,51.94
2018-08-23T08:10:51.116Z,51.73
2018-08-23T08:11:51.354Z,51.42
2018-08-23T08:12:52.095Z,51.91
2018-08-23T08:13:51.223Z,52.68
2018-08-23T08:14:52.484Z,52.65
2018-08-23T08:15:51.598Z,52.99
2018-08-23T08:16:53.178Z,52.40
2018-08-23T08:17:53.320Z,52.35
2018-08-23T08:18:52.584Z,53.09
2018-08-23T08:19:53.787Z,52.16
2018-08-23T08:20:54.092Z,52.39
2018-08-23T08:21:53.427Z,52.56
2018-08-23T08:22:55.021Z,52.20
2018-08-23T08:23:54.241Z,52.04
2018-08-23T08:24:55.999Z,51.84
2018-08-23T08:25:56.323Z,52.14
2018-08-23T08:26:04.411Z,52.54
2018-08-23T08:27:05.811Z,52.57
2018-08-23T08:28:05.131Z,52.64
2018-08-23T08:29:06.431Z,52.53
2018-08-23T08:30:06.673Z,53.06
2018-08-23T08:31:06.989Z,52.81
2018-08-23T08:32:07.153Z,52.36
2018-08-23T08:33:07.530Z,52.74
2018-08-23T08:34:07.818Z,52.85
2018-08-23T08:35:08.551Z,53.22
2018-08-23T08:36:07.758Z,54.24
2018-08-23T08:37:08.948Z,54.24
2018-08-23T08:38:09.315Z,55.01
2018-08-23T08:39:09.563Z,55.57
2018-08-23T08:40:09.763Z,55.98
2018-08-23T08:41:10.059Z,55.66
2018-08-23T08:42:10.247Z,55.82
2018-08-23T08:43:10.603Z,56.21
2018-08-23T08:44:10.800Z,56.10
2018-08-23T08:45:11.085Z,55.67
2018-08-23T08:46:11.383Z,55.57
2018-08-23T08:47:11.661Z,55.74
2018-08-23T08:48:11.942Z,55.58
2018-08-23T08:49:12.339Z,55.80
2018-08-23T08:50:12.579Z,56.14
2018-08-23T08:51:13.129Z,56.03
2018-08-23T08:52:13.386Z,56.14
2018-08-23T08:53:13.725Z,56.23
2018-08-23T08:54:13.230Z,56.25
2018-08-23T08:55:14.703Z,56.50
2018-08-23T08:56:15.047Z,56.34
2018-08-23T08:57:15.728Z,56.31
2018-08-23T08:58:15.318Z,56.66
2018-08-23T08:59:16.557Z,56.65
2018-08-23T09:00:16.816Z,56.75
2018-08-23T09:01:17.196Z,56.54
2018-08-23T09:02:17.565Z,56.62
2018-08-23T09:03:17.973Z,56.42
2018-08-23T09:04:17.302Z,55.84
2018-08-23T09:05:18.629Z,55.74
2018-08-23T09:06:19.146Z,55.89
2018-08-23T09:07:19.386Z,55.76
2018-08-23T09:08:19.656Z,55.76
2018-08-23T09:09:20.237Z,55.96
2018-08-23T09:10:20.518Z,56.22
2018-08-23T09:11:20.990Z,55.34
2018-08-23T09:12:21.362Z,55.35
2018-08-23T09:12:29.431Z,54.96
2018-08-23T09:13:31.040Z,54.78
2018-08-23T09:14:31.436Z,54.94
2018-08-23T09:15:32.285Z,55.12
2018-08-23T09:16:32.623Z,54.79
2018-08-23T09:17:33.045Z,54.74
2018-08-23T09:18:33.481Z,54.73
2018-08-23T09:19:32.695Z,54.67
2018-08-23T09:20:34.150Z,54.68
2018-08-23T09:21:33.325Z,53.97
2018-08-23T09:22:34.870Z,53.59
2018-08-23T09:23:35.366Z,53.27
2018-08-23T09:24:35.575Z,52.93
2018-08-23T09:25:35.812Z,53.44
2018-08-23T09:26:36.072Z,53.50
2018-08-23T09:27:36.535Z,53.36
2018-08-23T09:28:36.793Z,52.69
2018-08-23T09:29:37.091Z,52.90
2018-08-23T09:30:37.590Z,52.82
2018-08-23T09:31:37.861Z,52.70
2018-08-23T09:32:38.209Z,52.64
2018-08-23T09:33:38.516Z,52.87
2018-08-23T09:34:38.743Z,52.65
2018-08-23T09:35:39.206Z,52.84
2018-08-23T09:36:39.785Z,52.69
2018-08-23T09:37:40.213Z,52.27
2018-08-23T09:38:40.584Z,51.53
2018-08-23T09:39:41.139Z,51.73
2018-08-23T09:40:41.604Z,51.68
2018-08-23T09:41:42.063Z,51.97
2018-08-23T09:42:42.789Z,51.70
2018-08-23T09:43:43.335Z,51.78
2018-08-23T09:44:43.583Z,51.36
2018-08-23T09:45:44.242Z,50.83
2018-08-23T09:46:44.870Z,51.03
2018-08-23T09:47:45.659Z,51.89
2018-08-23T09:48:45.680Z,51.63
2018-08-23T09:49:45.945Z,51.45
2018-08-23T09:50:46.371Z,51.40
2018-08-23T09:51:45.590Z,51.33
2018-08-23T09:52:46.906Z,52.27
2018-08-23T09:53:47.089Z,51.71
2018-08-23T09:54:47.632Z,51.12
2018-08-23T09:55:47.874Z,51.20
2018-08-23T09:56:48.222Z,51.04
2018-08-23T09:57:48.885Z,50.82
2018-08-23T09:57:57.578Z,50.43
2018-08-23T09:58:59.046Z,50.68
2018-08-23T09:59:58.304Z,50.27
2018-08-23T10:00:59.475Z,50.34
2018-08-23T10:01:59.835Z,50.06
2018-08-23T10:03:00.213Z,50.21
2018-08-23T10:04:00.494Z,50.67
2018-08-23T10:05:00.973Z,50.07
2018-08-23T10:06:01.321Z,50.05
2018-08-23T10:07:02.242Z,49.65
2018-08-23T10:08:02.689Z,50.20
2018-08-23T10:09:02.965Z,48.94
2018-08-23T10:10:03.518Z,49.04
2018-08-23T10:11:03.743Z,48.95
2018-08-23T10:12:04.393Z,48.96
2018-08-23T10:13:04.638Z,48.84
2018-08-23T10:14:04.849Z,48.03
2018-08-23T10:15:05.264Z,48.66
2018-08-23T10:16:05.482Z,49.30
2018-08-23T10:17:06.073Z,49.10
2018-08-23T10:18:06.319Z,49.00
2018-08-23T10:19:06.912Z,48.61
2018-08-23T10:20:07.214Z,48.72
2018-08-23T10:21:07.642Z,48.18
2018-08-23T10:22:08.292Z,48.11
2018-08-23T10:23:08.419Z,48.20
2018-08-23T10:24:08.689Z,48.25
2018-08-23T10:25:08.892Z,48.28
2018-08-23T10:26:09.130Z,48.61
2018-08-23T10:27:09.408Z,48.29
2018-08-23T10:28:10.278Z,48.20
2018-08-23T10:29:11.171Z,48.06
2018-08-23T10:30:11.380Z,48.26
2018-08-23T10:31:15.615Z,48.05
2018-08-23T10:32:11.217Z,47.44
2018-08-23T10:33:11.406Z,47.52
2018-08-23T10:34:12.778Z,47.62
2018-08-23T10:35:13.114Z,47.71
2018-08-23T10:36:13.362Z,47.62
2018-08-23T10:37:14.326Z,47.66
2018-08-23T10:38:14.705Z,47.37
2018-08-23T10:39:13.946Z,47.60
2018-08-23T10:40:15.722Z,47.56
2018-08-23T10:41:15.911Z,47.60
2018-08-23T10:42:16.158Z,46.91
2018-08-23T10:43:16.464Z,46.66
2018-08-23T10:43:27.518Z,47.49
2018-08-23T10:44:28.723Z,47.90
2018-08-23T10:45:28.058Z,46.90
2018-08-23T10:46:29.320Z,47.33
2018-08-23T10:47:29.554Z,47.57
2018-08-23T10:48:29.805Z,46.98
2018-08-23T10:49:30.116Z,47.23
2018-08-23T10:50:30.469Z,46.39
2018-08-23T10:51:29.831Z,46.51
2018-08-23T10:52:31.023Z,46.77
2018-08-23T10:53:31.207Z,46.52
2018-08-23T10:54:30.460Z,46.33
2018-08-23T10:55:31.709Z,46.36
2018-08-23T10:56:31.974Z,46.34
2018-08-23T10:57:32.867Z,45.57
2018-08-23T10:58:33.235Z,44.99
2018-08-23T10:59:33.442Z,45.15
2018-08-23T11:00:33.673Z,45.41
2018-08-23T11:01:34.155Z,45.41
2018-08-23T11:02:35.086Z,45.16
2018-08-23T11:03:35.497Z,45.44
2018-08-23T11:04:35.640Z,44.44
2018-08-23T11:05:35.890Z,44.86
2018-08-23T11:06:36.362Z,43.08
2018-08-23T11:07:36.831Z,43.95
2018-08-23T11:08:37.256Z,44.61
2018-08-23T11:09:37.543Z,44.52
2018-08-23T11:10:38.008Z,43.88
2018-08-23T11:11:38.085Z,44.78
2018-08-23T11:12:38.452Z,44.64
2018-08-23T11:13:38.583Z,44.76
2018-08-23T11:14:38.913Z,44.54
2018-08-23T11:15:39.177Z,40.83
2018-08-23T11:16:39.531Z,40.13
2018-08-23T11:17:38.680Z,39.83
2018-08-23T11:18:40.051Z,39.04
2018-08-23T11:19:40.491Z,38.91
2018-08-23T11:20:41.007Z,40.79
2018-08-23T11:21:41.283Z,39.88
2018-08-23T11:22:41.623Z,40.64
2018-08-23T11:23:41.982Z,40.16
2018-08-23T11:24:42.168Z,40.31
2018-08-23T11:25:42.525Z,40.22
2018-08-23T11:26:42.839Z,41.13
2018-08-23T11:27:43.091Z,41.08
2018-08-23T11:28:43.824Z,40.79
2018-08-23T11:28:52.710Z,41.12
2018-08-23T11:29:53.890Z,41.00
2018-08-23T11:30:53.919Z,41.27
2018-08-23T11:31:54.246Z,41.15
2018-08-23T11:32:54.440Z,40.48
2018-08-23T11:33:56.135Z,39.88
2018-08-23T11:34:56.458Z,40.42
2018-08-23T11:35:55.656Z,40.07
2018-08-23T11:36:56.967Z,40.96
2018-08-23T11:37:57.346Z,40.98
2018-08-23T11:38:57.543Z,41.05
2018-08-23T11:39:57.941Z,41.16
2018-08-23T11:40:58.385Z,41.09
2018-08-23T11:41:58.887Z,41.57
2018-08-23T11:42:59.437Z,40.82
2018-08-23T11:43:59.652Z,41.16
2018-08-23T11:44:59.964Z,41.46
2018-08-23T11:46:00.324Z,41.32
2018-08-23T11:47:00.599Z,41.61
2018-08-23T11:48:00.788Z,41.44
2018-08-23T11:49:01.597Z,41.90
2018-08-23T11:50:00.969Z,41.84
2018-08-23T11:51:02.341Z,42.72
2018-08-23T11:52:02.668Z,41.95
2018-08-23T11:53:03.191Z,42.68
2018-08-23T11:54:02.508Z,42.24
2018-08-23T11:55:03.745Z,42.20
2018-08-23T11:56:04.080Z,42.01
2018-08-23T11:57:04.463Z,42.33
2018-08-23T11:58:04.734Z,42.56
2018-08-23T11:59:03.970Z,42.25
2018-08-23T12:00:04.177Z,41.87
2018-08-23T12:01:04.376Z,41.89
2018-08-23T12:02:05.752Z,42.26
2018-08-23T12:03:06.066Z,42.02
2018-08-23T12:04:06.495Z,42.10
2018-08-23T12:05:06.756Z,42.05
2018-08-23T12:06:06.927Z,42.24
2018-08-23T12:07:07.296Z,41.78
2018-08-23T12:08:07.615Z,42.01
2018-08-23T12:09:07.820Z,41.96
2018-08-23T12:10:07.356Z,42.07
2018-08-23T12:11:07.739Z,42.13
2018-08-23T12:12:09.124Z,41.99
2018-08-23T12:13:08.440Z,42.25
2018-08-23T12:14:10.160Z,42.50
2018-08-23T12:15:10.366Z,42.04
2018-08-23T12:16:10.673Z,42.28
2018-08-23T12:17:11.263Z,42.13
2018-08-23T12:18:12.007Z,42.10
2018-08-23T12:19:12.297Z,40.61
2018-08-23T12:20:12.786Z,41.10
2018-08-23T12:21:13.153Z,41.17
2018-08-23T12:21:21.860Z,41.92
2018-08-23T12:22:23.052Z,41.96
2018-08-23T12:23:23.083Z,41.78
2018-08-23T12:24:23.392Z,42.05
2018-08-23T12:25:23.657Z,42.34
2018-08-23T12:26:23.956Z,42.11
2018-08-23T12:27:24.284Z,42.52
2018-08-23T12:28:24.624Z,42.10
2018-08-23T12:29:25.130Z,41.90
2018-08-23T12:30:25.553Z,41.79
2018-08-23T12:31:25.861Z,40.98
2018-08-23T12:32:26.142Z,41.38
2018-08-23T12:33:26.797Z,40.73
2018-08-23T12:34:27.379Z,41.11
2018-08-23T12:35:27.839Z,40.71
2018-08-23T12:36:28.178Z,41.42
2018-08-23T12:37:29.006Z,40.68
2018-08-23T12:38:29.353Z,40.72
2018-08-23T12:39:30.193Z,41.16
2018-08-23T12:40:30.558Z,40.95
2018-08-23T12:41:30.780Z,41.17
2018-08-23T12:42:31.160Z,41.30
2018-08-23T12:43:31.602Z,41.21
2018-08-23T12:44:30.763Z,41.19